Chubbuck, ID (83202)

5:37 PM MST on February 27, 2015 (GMT -0700)
University Area | Change Station
CLOSE
Current Station
Personal Weather Station
Location: Pocatello, ID
Elevation: 4659 ft
Nearby Weather Stations

Elev 4659 ft 42.86 °N, 112.42 °W | Updated 11 seconds ago

Overcast
Overcast
37.2 °F
Feels Like 34 °F
N
4.5
Wind Variable Wind from South
Gusts 8.3 mph

Today
High -- | Low -- °F
--% Chance of Precip.
Yesterday
High -- | Low -- °F
Precip. -- in
7:09 AM 6:16 PM
Waxing Gibbous, 73% visible
Pressure 29.74 in
Visibility 10.0 miles
Clouds Scattered Clouds 3200 ft
Scattered Clouds 8500 ft
Windchill 34 °F
Dew Point 25 °F
Humidity 62%
Rainfall 0.00 in
Snow Depth Not available.
UV 1 out of 12
Pollen 2.80 out of 12
Air Quality Not available.
Flu Activity Not available.
METAR KPIH 272353Z 36004KT 10SM SCT032 SCT085 04/M03 A2971 RMK AO2 SLP071 60000 T00441033 10044 20000 56011

More Conditions Fewer Conditions

Pressure 29.74 in
Visibility 10.0 miles
Clouds Scattered Clouds 3200 ft
Scattered Clouds 8500 ft
Windchill 34 °F
Dew Point 25 °F
Humidity 62%
Rainfall 0.00 in
Snow Depth Not available.
UV 1 out of 12
Pollen 2.80 out of 12
Air Quality Not available.
Flu Activity Not available.
METAR KPIH 272353Z 36004KT 10SM SCT032 SCT085 04/M03 A2971 RMK AO2 SLP071 60000 T00441033 10044 20000 56011

More Conditions Fewer Conditions

10-Day Weather Forecast

Almanac

Astronomy

Feb. 27, 2015 Rise Set
Actual Time
Civil Twilight
Nautical Twilight
Astronomical Twilight
Moon
Length of Visible Light
Length of Day
Tomorrow will be .
, % of the Moon is Illuminated

Today's Extremes

State Highs State Lows

Community

WunderPhotos

Upload Photos

1,800,904 photos uploaded!

WunderBlogs® & News

Nearby

Air Quality

  Air Quality AQ Index Pollutant
Not available.

Snow Depth

Station Depth Elevation

Earthquake Activity

City Distance Mag. Time & Date
Minimum magnitude displayed is 2.5.

Coastal Water Temperatures

Place Temperature

Nearby Weather Stations